Time;durP1;ratioP1;P1;durP2;ratioP2;P2;SDS_P1;SDS_P2;PMS_P1;PMS_P2;Temp;Humidity;BMP_temperature;BMP_pressure;BME280_temperature;BME280_humidity;BME280_pressure;Samples;Min_cycle;Max_cycle;Signal;HPM_P1;HPM_P2
2024/02/15 00:01:20;;;;;;;15.00;10.10;;;;;;;;;;103716;1289;544979;-73
2024/02/15 00:05:01;;;;;;;15.60;9.70;;;;;;;;;;103809;1301;544736;-73
2024/02/15 00:08:34;;;;;;;17.00;10.40;;;;;;;;;;104033;1289;544764;-73
2024/02/15 00:12:17;;;;;;;17.00;10.70;;;;;;;;;;103809;1289;544990;-73
2024/02/15 00:15:53;;;;;;;17.50;10.50;;;;;;;;;;103520;1295;546581;-73
2024/02/15 00:19:31;;;;;;;18.70;10.40;;;;;;;;;;103661;1291;545059;-73
2024/02/15 00:23:08;;;;;;;14.40;9.30;;;;;;;;;;103841;1292;544774;-73
2024/02/15 00:26:46;;;;;;;15.70;9.80;;;;;;;;;;103813;1289;544871;-73
2024/02/15 00:30:19;;;;;;;14.30;9.10;;;;;;;;;;103995;1289;544825;-73
2024/02/15 00:34:02;;;;;;;11.50;8.00;;;;;;;;;;103786;1291;545053;-73
2024/02/15 00:37:38;;;;;;;12.90;8.00;;;;;;;;;;103711;1295;544963;-73
2024/02/15 00:41:16;;;;;;;13.30;7.90;;;;;;;;;;103749;1290;545938;-73
2024/02/15 00:44:52;;;;;;;12.20;8.00;;;;;;;;;;103678;1292;545353;-73
2024/02/15 00:48:30;;;;;;;11.50;7.30;;;;;;;;;;103787;1301;545534;-73
2024/02/15 00:52:08;;;;;;;11.30;7.70;;;;;;;;;;103863;1289;544806;-73
2024/02/15 00:55:45;;;;;;;10.90;7.30;;;;;;;;;;103824;1289;545436;-73
2024/02/15 00:59:22;;;;;;;12.10;8.00;;;;;;;;;;103788;1292;544984;-73
2024/02/15 01:03:00;;;;;;;11.30;7.30;;;;;;;;;;103691;1289;544854;-73
2024/02/15 01:06:37;;;;;;;11.40;7.40;;;;;;;;;;103802;1290;544918;-73
2024/02/15 01:10:15;;;;;;;11.40;7.50;;;;;;;;;;103659;1292;544985;-73
2024/02/15 01:13:52;;;;;;;11.00;7.50;;;;;;;;;;103771;1292;544944;-73
2024/02/15 01:17:30;;;;;;;17.80;12.70;;;;;;;;;;103679;1303;545493;-73
2024/02/15 01:21:08;;;;;;;13.10;8.20;;;;;;;;;;104180;1285;545071;-73
2024/02/15 01:24:45;;;;;;;10.40;7.00;;;;;;;;;;103735;1295;545557;-73
2024/02/15 01:28:22;;;;;;;12.30;8.60;;;;;;;;;;103785;1288;545521;-73
2024/02/15 01:32:01;;;;;;;12.30;8.50;;;;;;;;;;104620;1283;545514;-73
2024/02/15 01:35:38;;;;;;;16.10;10.30;;;;;;;;;;103708;1292;544842;-73
2024/02/15 01:39:11;;;;;;;15.70;9.80;;;;;;;;;;104035;1289;545033;-73
2024/02/15 01:42:49;;;;;;;11.30;7.70;;;;;;;;;;103841;1289;544823;-73
2024/02/15 01:46:31;;;;;;;11.30;7.80;;;;;;;;;;103626;1292;545401;-73
2024/02/15 01:50:07;;;;;;;11.60;8.20;;;;;;;;;;103909;1288;544759;-73
2024/02/15 01:53:42;;;;;;;11.30;8.20;;;;;;;;;;103876;1294;544969;-72
2024/02/15 01:57:20;;;;;;;11.30;8.00;;;;;;;;;;103850;1292;544837;-71
2024/02/15 02:01:01;;;;;;;12.30;8.20;;;;;;;;;;103835;1292;544883;-73
2024/02/15 02:04:37;;;;;;;11.60;8.00;;;;;;;;;;103815;1292;544937;-73
2024/02/15 02:08:11;;;;;;;12.40;7.80;;;;;;;;;;103748;1292;545218;-71
2024/02/15 02:11:49;;;;;;;11.30;7.80;;;;;;;;;;103695;1290;544766;-71
2024/02/15 02:15:26;;;;;;;13.00;9.00;;;;;;;;;;103944;1288;545028;-73
2024/02/15 02:19:08;;;;;;;14.50;10.70;;;;;;;;;;103756;1288;545246;-71
2024/02/15 02:22:46;;;;;;;14.80;11.00;;;;;;;;;;103706;1291;545373;-73
2024/02/15 02:26:22;;;;;;;13.30;9.40;;;;;;;;;;103773;1289;544847;-73
2024/02/15 02:30:00;;;;;;;15.30;11.80;;;;;;;;;;103610;1290;544873;-73
2024/02/15 02:33:36;;;;;;;17.10;14.50;;;;;;;;;;103688;1294;545122;-73
2024/02/15 02:37:13;;;;;;;17.50;14.30;;;;;;;;;;103776;1294;545528;-73
2024/02/15 02:40:52;;;;;;;14.90;11.50;;;;;;;;;;103793;1289;544836;-73
2024/02/15 02:44:29;;;;;;;13.10;9.60;;;;;;;;;;103755;1292;544874;-73
2024/02/15 02:48:06;;;;;;;13.70;9.60;;;;;;;;;;103830;1289;545637;-73
2024/02/15 02:51:44;;;;;;;13.30;9.80;;;;;;;;;;103642;1291;544725;-73
2024/02/15 02:55:22;;;;;;;14.10;10.20;;;;;;;;;;103744;1292;545070;-73
2024/02/15 02:58:57;;;;;;;11.70;8.50;;;;;;;;;;103619;1291;544919;-73
2024/02/15 03:02:36;;;;;;;10.80;8.10;;;;;;;;;;103699;1289;545034;-73
2024/02/15 03:06:14;;;;;;;13.00;8.50;;;;;;;;;;103699;1289;544769;-73
2024/02/15 03:09:51;;;;;;;11.10;8.20;;;;;;;;;;103550;1290;544724;-73
2024/02/15 03:13:24;;;;;;;11.80;8.20;;;;;;;;;;104003;1291;544905;-71
2024/02/15 03:17:06;;;;;;;12.20;8.50;;;;;;;;;;103831;1289;545250;-73
2024/02/15 03:20:44;;;;;;;11.60;8.50;;;;;;;;;;103617;1291;545242;-73
2024/02/15 03:24:21;;;;;;;11.40;7.90;;;;;;;;;;103629;1295;545512;-73
2024/02/15 03:28:03;;;;;;;13.50;9.20;;;;;;;;;;103871;1289;544994;-73
2024/02/15 03:31:36;;;;;;;13.00;8.20;;;;;;;;;;104558;1282;544827;-73
2024/02/15 03:35:09;;;;;;;12.60;8.10;;;;;;;;;;103626;1292;545182;-73
2024/02/15 03:38:53;;;;;;;12.00;8.00;;;;;;;;;;104137;1288;544946;-73
2024/02/15 03:42:29;;;;;;;11.90;7.40;;;;;;;;;;103800;1289;546063;-73
2024/02/15 03:46:08;;;;;;;11.10;7.70;;;;;;;;;;103898;1289;545494;-73
2024/02/15 03:49:43;;;;;;;11.40;7.40;;;;;;;;;;103742;1288;544764;-73
2024/02/15 03:53:20;;;;;;;11.50;7.30;;;;;;;;;;103915;1292;544964;-73
2024/02/15 03:56:58;;;;;;;13.60;8.50;;;;;;;;;;104239;1285;544865;-73
2024/02/15 04:00:31;;;;;;;14.70;8.80;;;;;;;;;;103694;1292;544797;-71
2024/02/15 04:04:13;;;;;;;12.80;8.90;;;;;;;;;;103526;1300;545552;-73
2024/02/15 04:07:46;;;;;;;11.70;8.60;;;;;;;;;;103900;1288;544983;-72
2024/02/15 04:11:24;;;;;;;13.10;8.60;;;;;;;;;;104037;1288;544827;-73
2024/02/15 04:15:11;;;;;;;12.30;8.40;;;;;;;;;;103716;1289;545044;-73
2024/02/15 04:18:45;;;;;;;12.70;9.10;;;;;;;;;;103471;1292;545514;-73
2024/02/15 04:22:20;;;;;;;14.80;10.00;;;;;;;;;;103602;1294;545748;-73
2024/02/15 04:25:54;;;;;;;15.70;10.70;;;;;;;;;;103927;1288;545113;-71
2024/02/15 04:29:36;;;;;;;16.50;11.70;;;;;;;;;;103851;1290;545591;-73
2024/02/15 04:33:15;;;;;;;27.90;23.30;;;;;;;;;;103725;1295;544971;-73
2024/02/15 04:36:55;;;;;;;30.30;21.50;;;;;;;;;;103690;1292;545358;-73
2024/02/15 04:40:27;;;;;;;36.40;20.80;;;;;;;;;;103649;1291;545039;-73
2024/02/15 04:44:02;;;;;;;35.00;20.20;;;;;;;;;;103882;1288;545403;-71
2024/02/15 04:47:45;;;;;;;29.40;18.50;;;;;;;;;;103960;1288;545781;-73
2024/02/15 04:51:16;;;;;;;23.90;15.30;;;;;;;;;;104142;1286;545534;-73
2024/02/15 04:55:00;;;;;;;17.90;12.60;;;;;;;;;;103787;1289;545248;-73
2024/02/15 04:58:36;;;;;;;18.50;11.60;;;;;;;;;;103826;1295;545343;-73
2024/02/15 05:02:12;;;;;;;22.70;13.20;;;;;;;;;;103627;1291;544750;-73
2024/02/15 05:05:50;;;;;;;28.20;15.40;;;;;;;;;;103724;1289;545521;-73
2024/02/15 05:09:23;;;;;;;19.20;11.70;;;;;;;;;;103926;1289;545546;-71
2024/02/15 05:13:04;;;;;;;14.50;9.90;;;;;;;;;;103869;1292;545508;-73
2024/02/15 05:16:43;;;;;;;15.50;9.70;;;;;;;;;;103772;1290;544838;-73
2024/02/15 05:20:20;;;;;;;14.50;9.40;;;;;;;;;;103795;1289;544929;-73
2024/02/15 05:23:58;;;;;;;11.90;8.10;;;;;;;;;;103919;1289;544968;-73
2024/02/15 05:27:36;;;;;;;12.30;9.00;;;;;;;;;;103775;1289;545044;-73
2024/02/15 05:31:20;;;;;;;14.10;9.90;;;;;;;;;;103652;1295;545473;-74
2024/02/15 05:34:50;;;;;;;12.70;9.10;;;;;;;;;;103902;1289;545258;-73
2024/02/15 05:38:28;;;;;;;14.70;9.00;;;;;;;;;;103797;1291;544699;-73
2024/02/15 05:42:05;;;;;;;12.60;8.70;;;;;;;;;;103802;1294;545976;-73
2024/02/15 05:45:42;;;;;;;13.50;8.40;;;;;;;;;;103805;1289;544755;-73
2024/02/15 05:49:23;;;;;;;14.10;9.40;;;;;;;;;;104767;1291;545066;-74
2024/02/15 05:52:58;;;;;;;16.80;13.90;;;;;;;;;;103750;1302;544957;-73
2024/02/15 05:56:35;;;;;;;19.50;16.90;;;;;;;;;;103810;1289;545647;-73
2024/02/15 06:00:12;;;;;;;22.70;20.00;;;;;;;;;;103862;1296;544847;-73
2024/02/15 06:03:50;;;;;;;22.50;19.20;;;;;;;;;;103884;1289;545967;-73
2024/02/15 06:07:23;;;;;;;20.30;14.20;;;;;;;;;;103782;1289;545491;-71
2024/02/15 06:11:09;;;;;;;22.40;14.90;;;;;;;;;;103743;1289;544934;-73
2024/02/15 06:14:42;;;;;;;21.00;13.60;;;;;;;;;;103814;1289;545227;-73
2024/02/15 06:18:28;;;;;;;26.70;16.50;;;;;;;;;;103878;1289;545034;-73
2024/02/15 06:21:56;;;;;;;31.00;20.90;;;;;;;;;;103745;1288;545440;-73
2024/02/15 06:25:37;;;;;;;32.00;23.20;;;;;;;;;;103842;1292;544918;-73
2024/02/15 06:40:04;;;;;;;17.80;11.30;;;;;;;;;;103847;1290;545396;-73
2024/02/15 06:43:41;;;;;;;29.20;19.70;;;;;;;;;;103934;1292;544709;-73
2024/02/15 06:47:19;;;;;;;27.80;22.50;;;;;;;;;;103807;1289;545196;-73
2024/02/15 06:50:57;;;;;;;18.40;12.40;;;;;;;;;;103728;1296;545784;-73
2024/02/15 06:54:38;;;;;;;14.20;9.30;;;;;;;;;;103818;1292;545576;-73
2024/02/15 06:58:13;;;;;;;15.60;8.90;;;;;;;;;;103803;1289;545009;-73
2024/02/15 07:01:52;;;;;;;13.80;8.90;;;;;;;;;;103874;1289;545000;-73
2024/02/15 07:05:23;;;;;;;13.60;9.10;;;;;;;;;;103962;1289;545772;-72
2024/02/15 07:09:07;;;;;;;12.00;8.00;;;;;;;;;;103745;1292;545422;-73
2024/02/15 07:12:37;;;;;;;12.60;8.00;;;;;;;;;;103815;1301;545967;-71
2024/02/15 07:16:18;;;;;;;14.50;8.80;;;;;;;;;;103789;1289;544913;-73
2024/02/15 07:19:56;;;;;;;16.20;9.10;;;;;;;;;;103753;1290;544837;-73
2024/02/15 07:23:33;;;;;;;12.00;8.00;;;;;;;;;;103663;1288;546124;-73
2024/02/15 07:27:11;;;;;;;12.00;8.10;;;;;;;;;;103834;1290;544796;-74
2024/02/15 07:30:51;;;;;;;14.90;9.50;;;;;;;;;;103574;1289;545957;-73
2024/02/15 07:34:26;;;;;;;16.90;11.50;;;;;;;;;;103908;1289;544975;-73
2024/02/15 07:38:05;;;;;;;20.90;12.30;;;;;;;;;;103557;1292;545205;-73
2024/02/15 07:41:41;;;;;;;21.70;12.60;;;;;;;;;;103779;1291;545498;-73
2024/02/15 07:45:18;;;;;;;15.40;9.90;;;;;;;;;;103651;1295;544749;-73
2024/02/15 07:48:56;;;;;;;16.50;9.20;;;;;;;;;;103795;1289;544922;-73
2024/02/15 07:52:33;;;;;;;13.80;9.10;;;;;;;;;;103634;1293;545027;-73
2024/02/15 07:56:10;;;;;;;14.80;8.90;;;;;;;;;;103807;1289;545618;-73
2024/02/15 07:59:49;;;;;;;17.40;10.90;;;;;;;;;;103727;1289;545460;-73
2024/02/15 08:03:22;;;;;;;15.50;11.00;;;;;;;;;;103830;1288;545784;-71
2024/02/15 08:07:03;;;;;;;16.10;11.30;;;;;;;;;;103738;1291;544710;-73
2024/02/15 08:10:41;;;;;;;17.40;10.40;;;;;;;;;;103810;1289;545132;-73
2024/02/15 08:14:20;;;;;;;22.30;12.20;;;;;;;;;;103769;1289;545411;-73
2024/02/15 08:17:55;;;;;;;18.00;9.90;;;;;;;;;;103829;1289;544735;-73
2024/02/15 08:21:35;;;;;;;19.60;11.00;;;;;;;;;;103764;1293;545421;-73
2024/02/15 08:25:11;;;;;;;19.90;10.60;;;;;;;;;;104072;1292;545784;-73
2024/02/15 08:28:48;;;;;;;17.50;9.60;;;;;;;;;;103842;1288;545553;-73
2024/02/15 08:32:25;;;;;;;16.60;8.80;;;;;;;;;;104697;1286;544973;-73
2024/02/15 08:36:04;;;;;;;17.70;9.60;;;;;;;;;;103775;1291;545044;-73
2024/02/15 08:39:40;;;;;;;18.30;10.50;;;;;;;;;;104336;1286;544757;-73
2024/02/15 08:43:17;;;;;;;26.00;15.00;;;;;;;;;;103819;1301;545121;-73
2024/02/15 08:46:55;;;;;;;23.90;14.10;;;;;;;;;;103824;1289;545366;-73
2024/02/15 08:50:32;;;;;;;16.70;10.20;;;;;;;;;;103642;1291;544996;-73
2024/02/15 08:54:09;;;;;;;13.60;8.30;;;;;;;;;;103782;1292;545486;-73
2024/02/15 08:57:47;;;;;;;11.90;7.70;;;;;;;;;;103764;1289;545883;-73
2024/02/15 09:01:22;;;;;;;13.10;8.00;;;;;;;;;;103844;1288;545675;-72
2024/02/15 09:05:03;;;;;;;16.30;10.00;;;;;;;;;;103741;1289;545050;-73
2024/02/15 09:08:40;;;;;;;15.20;9.70;;;;;;;;;;103809;1289;545594;-73
2024/02/15 09:12:17;;;;;;;13.90;9.00;;;;;;;;;;103769;1291;545443;-73
2024/02/15 09:15:55;;;;;;;17.70;10.50;;;;;;;;;;103751;1292;545567;-73
2024/02/15 09:19:32;;;;;;;13.40;8.10;;;;;;;;;;103647;1291;546002;-73
2024/02/15 09:23:12;;;;;;;16.20;9.30;;;;;;;;;;103822;1292;545009;-73
2024/02/15 09:26:48;;;;;;;17.20;10.40;;;;;;;;;;103725;1295;545021;-73
2024/02/15 09:30:27;;;;;;;13.60;7.90;;;;;;;;;;104343;1286;545029;-73
2024/02/15 09:34:06;;;;;;;10.60;6.40;;;;;;;;;;103710;1292;544993;-73
2024/02/15 09:37:50;;;;;;;12.20;6.90;;;;;;;;;;103846;1292;545470;-73
2024/02/15 09:41:17;;;;;;;11.90;6.10;;;;;;;;;;103683;1295;544979;-74
2024/02/15 09:44:55;;;;;;;10.80;6.10;;;;;;;;;;103918;1292;544989;-73
2024/02/15 09:48:34;;;;;;;10.60;5.70;;;;;;;;;;103664;1295;544791;-73
2024/02/15 09:52:15;;;;;;;11.40;5.60;;;;;;;;;;103938;1288;544805;-73
2024/02/15 09:55:48;;;;;;;12.50;6.60;;;;;;;;;;103648;1290;544989;-73
2024/02/15 09:59:21;;;;;;;13.20;7.80;;;;;;;;;;104031;1288;545261;-72
2024/02/15 10:03:06;;;;;;;12.40;6.50;;;;;;;;;;103661;1291;544953;-73
2024/02/15 10:06:40;;;;;;;12.40;6.30;;;;;;;;;;103857;1290;544993;-74
2024/02/15 10:10:19;;;;;;;12.90;5.40;;;;;;;;;;103838;1288;544803;-73
2024/02/15 10:14:09;;;;;;;11.80;5.90;;;;;;;;;;103892;1289;544881;-73
2024/02/15 10:17:35;;;;;;;10.70;6.30;;;;;;;;;;103759;1290;544980;-73
2024/02/15 10:21:11;;;;;;;11.30;6.50;;;;;;;;;;103785;1289;544950;-73
2024/02/15 10:24:47;;;;;;;10.90;7.00;;;;;;;;;;104063;1291;545763;-74
2024/02/15 10:28:27;;;;;;;9.30;5.00;;;;;;;;;;104031;1289;545086;-73
2024/02/15 10:32:03;;;;;;;8.30;4.70;;;;;;;;;;103914;1289;544804;-73
2024/02/15 10:35:40;;;;;;;7.70;4.10;;;;;;;;;;104048;1290;545519;-73
2024/02/15 10:39:17;;;;;;;12.00;6.60;;;;;;;;;;103743;1290;545260;-72
2024/02/15 10:42:57;;;;;;;10.70;5.90;;;;;;;;;;104151;1287;544842;-73
2024/02/15 10:46:32;;;;;;;10.40;6.30;;;;;;;;;;103674;1296;545626;-72
2024/02/15 10:50:10;;;;;;;7.90;4.00;;;;;;;;;;103827;1292;545517;-72
2024/02/15 10:53:55;;;;;;;9.30;4.20;;;;;;;;;;103658;1289;545028;-73
2024/02/15 10:57:22;;;;;;;8.10;4.30;;;;;;;;;;103823;1292;544974;-72
2024/02/15 11:01:03;;;;;;;7.80;4.10;;;;;;;;;;103824;1291;545167;-73
2024/02/15 11:04:41;;;;;;;8.30;4.40;;;;;;;;;;103743;1289;546306;-73
2024/02/15 11:08:17;;;;;;;9.60;4.60;;;;;;;;;;103613;1295;545023;-73
2024/02/15 11:11:55;;;;;;;10.60;5.80;;;;;;;;;;103797;1289;545050;-73
2024/02/15 11:15:49;;;;;;;12.80;6.50;;;;;;;;;;103961;1288;545687;-72
2024/02/15 11:19:10;;;;;;;9.50;4.50;;;;;;;;;;103855;1292;545516;-72
2024/02/15 11:22:55;;;;;;;10.30;5.10;;;;;;;;;;103621;1291;546010;-74
2024/02/15 11:26:46;;;;;;;15.80;6.80;;;;;;;;;;103949;1288;544633;-74
2024/02/15 11:30:09;;;;;;;10.50;4.80;;;;;;;;;;103668;1292;544969;-74
2024/02/15 11:33:38;;;;;;;15.30;7.20;;;;;;;;;;104513;1285;545000;-73
2024/02/15 11:37:35;;;;;;;12.10;4.90;;;;;;;;;;103668;1290;544947;-72
2024/02/15 11:40:57;;;;;;;13.60;5.90;;;;;;;;;;103768;1289;545239;-73
2024/02/15 11:44:32;;;;;;;9.50;4.70;;;;;;;;;;103577;1291;544965;-73
2024/02/15 11:48:12;;;;;;;10.60;5.90;;;;;;;;;;103848;1289;544908;-74
2024/02/15 11:51:47;;;;;;;7.20;3.70;;;;;;;;;;103774;1295;544731;-73
2024/02/15 11:55:23;;;;;;;10.70;5.70;;;;;;;;;;103828;1289;544787;-74
2024/02/15 11:59:06;;;;;;;9.10;4.30;;;;;;;;;;103675;1292;545240;-74
2024/02/15 12:20:45;;;;;;;7.30;3.80;;;;;;;;;;103636;1292;545393;-73
2024/02/15 12:24:26;;;;;;;11.10;5.30;;;;;;;;;;103928;1289;546178;-71
2024/02/15 12:28:04;;;;;;;6.10;2.90;;;;;;;;;;104143;1285;545048;-72
2024/02/15 12:31:38;;;;;;;6.00;2.60;;;;;;;;;;103898;1290;544957;-72
2024/02/15 12:35:19;;;;;;;7.40;3.60;;;;;;;;;;103736;1295;545175;-74
2024/02/15 12:39:00;;;;;;;6.90;3.20;;;;;;;;;;103821;1292;545348;-72
2024/02/15 12:42:30;;;;;;;6.20;2.80;;;;;;;;;;103779;1294;545019;-74
2024/02/15 12:46:08;;;;;;;5.90;2.70;;;;;;;;;;103835;1289;544986;-72
2024/02/15 12:49:46;;;;;;;5.90;2.70;;;;;;;;;;103938;1289;545095;-74
2024/02/15 12:53:23;;;;;;;9.60;3.70;;;;;;;;;;104692;1285;544973;-72
2024/02/15 12:57:09;;;;;;;5.40;2.70;;;;;;;;;;103689;1291;545134;-72
2024/02/15 13:00:39;;;;;;;6.90;3.60;;;;;;;;;;103759;1290;545658;-72
2024/02/15 13:04:25;;;;;;;8.20;3.90;;;;;;;;;;103862;1300;544934;-73
2024/02/15 13:07:57;;;;;;;6.90;3.40;;;;;;;;;;103881;1289;545223;-74
2024/02/15 13:11:32;;;;;;;8.90;4.90;;;;;;;;;;103851;1288;544864;-72
2024/02/15 13:15:11;;;;;;;8.70;3.70;;;;;;;;;;103832;1289;544750;-72
2024/02/15 13:18:46;;;;;;;7.70;3.60;;;;;;;;;;103798;1292;546433;-72
2024/02/15 13:22:25;;;;;;;7.40;3.60;;;;;;;;;;104311;1286;544958;-72
2024/02/15 13:26:04;;;;;;;8.80;3.00;;;;;;;;;;103851;1289;544773;-70
2024/02/15 13:29:39;;;;;;;8.00;2.30;;;;;;;;;;103835;1290;544913;-74
2024/02/15 13:33:16;;;;;;;5.70;2.50;;;;;;;;;;103627;1292;544723;-72
2024/02/15 13:36:49;;;;;;;8.00;3.30;;;;;;;;;;103906;1289;544973;-71
2024/02/15 13:40:31;;;;;;;7.40;3.30;;;;;;;;;;103720;1294;545158;-71
2024/02/15 13:44:08;;;;;;;6.30;2.90;;;;;;;;;;103831;1292;545507;-73
2024/02/15 13:47:48;;;;;;;10.70;3.40;;;;;;;;;;103829;1290;544829;-72
2024/02/15 13:51:19;;;;;;;9.00;3.50;;;;;;;;;;104110;1286;545647;-73
2024/02/15 13:55:00;;;;;;;7.60;3.00;;;;;;;;;;103721;1295;545947;-73
2024/02/15 13:58:37;;;;;;;6.70;3.00;;;;;;;;;;103799;1289;545004;-73
2024/02/15 14:02:14;;;;;;;7.30;2.90;;;;;;;;;;103717;1289;545014;-73
2024/02/15 14:05:52;;;;;;;10.50;4.60;;;;;;;;;;103746;1295;544914;-73
2024/02/15 14:09:30;;;;;;;7.30;2.70;;;;;;;;;;103811;1289;544731;-73
2024/02/15 14:13:11;;;;;;;7.20;2.50;;;;;;;;;;103773;1295;545927;-73
2024/02/15 14:16:44;;;;;;;7.60;3.50;;;;;;;;;;103707;1295;545051;-74
2024/02/15 14:20:22;;;;;;;7.70;2.70;;;;;;;;;;103912;1289;544732;-73
2024/02/15 14:23:59;;;;;;;8.00;3.30;;;;;;;;;;103731;1292;545866;-73
2024/02/15 14:27:40;;;;;;;8.20;3.40;;;;;;;;;;103929;1289;544953;-73
2024/02/15 14:34:52;;;;;;;8.80;4.70;;;;;;;;;;103881;1290;544943;-73
2024/02/15 14:38:29;;;;;;;10.90;5.30;;;;;;;;;;103851;1290;545394;-73
2024/02/15 14:42:06;;;;;;;11.30;5.50;;;;;;;;;;103798;1291;544830;-73
2024/02/15 14:45:43;;;;;;;10.90;5.70;;;;;;;;;;103802;1289;544846;-73
2024/02/15 14:49:17;;;;;;;12.00;6.00;;;;;;;;;;103747;1289;546093;-71
2024/02/15 14:52:58;;;;;;;13.80;7.30;;;;;;;;;;103733;1289;545591;-73
2024/02/15 14:56:36;;;;;;;16.10;7.90;;;;;;;;;;103714;1291;545574;-73
2024/02/15 15:00:14;;;;;;;14.10;6.50;;;;;;;;;;103909;1292;545114;-73
2024/02/15 15:03:58;;;;;;;11.60;6.40;;;;;;;;;;103900;1289;544720;-73
2024/02/15 15:14:45;;;;;;;33.10;22.90;;;;;;;;;;103593;1292;544915;-74
2024/02/15 15:18:17;;;;;;;25.00;14.40;;;;;;;;;;103855;1289;545546;-72
2024/02/15 15:21:59;;;;;;;14.90;9.20;;;;;;;;;;103732;1289;544996;-73
2024/02/15 15:25:39;;;;;;;14.50;8.80;;;;;;;;;;103887;1290;544806;-73
2024/02/15 15:29:14;;;;;;;14.60;8.60;;;;;;;;;;103826;1293;544876;-73
2024/02/15 15:32:50;;;;;;;13.40;8.10;;;;;;;;;;103651;1292;544946;-73
2024/02/15 15:36:28;;;;;;;32.60;9.90;;;;;;;;;;103515;1291;544782;-73
2024/02/15 15:40:08;;;;;;;17.00;10.30;;;;;;;;;;103773;1289;544960;-73
2024/02/15 15:43:44;;;;;;;20.50;12.20;;;;;;;;;;103801;1288;544738;-73
2024/02/15 15:47:17;;;;;;;17.50;11.50;;;;;;;;;;103882;1289;545143;-74
2024/02/15 15:51:00;;;;;;;19.30;12.90;;;;;;;;;;103774;1289;544861;-74
2024/02/15 15:54:36;;;;;;;21.80;14.60;;;;;;;;;;104061;1289;545507;-73
2024/02/15 15:58:14;;;;;;;20.50;12.30;;;;;;;;;;103670;1295;544804;-73
2024/02/15 16:01:53;;;;;;;24.80;14.90;;;;;;;;;;103926;1288;545949;-72
2024/02/15 16:05:28;;;;;;;34.20;21.80;;;;;;;;;;103709;1292;545646;-74
2024/02/15 16:09:05;;;;;;;38.20;19.90;;;;;;;;;;103763;1292;545051;-73
2024/02/15 16:12:39;;;;;;;21.50;11.40;;;;;;;;;;103732;1292;545445;-71
2024/02/15 16:16:21;;;;;;;19.10;9.60;;;;;;;;;;103700;1291;545140;-73
2024/02/15 16:19:57;;;;;;;25.60;13.50;;;;;;;;;;103835;1293;544830;-73
2024/02/15 16:23:36;;;;;;;23.40;14.40;;;;;;;;;;103695;1292;545023;-74
2024/02/15 16:27:12;;;;;;;40.80;19.00;;;;;;;;;;103793;1290;545195;-73
2024/02/15 16:30:48;;;;;;;52.20;20.70;;;;;;;;;;103730;1291;545134;-74
2024/02/15 16:34:28;;;;;;;40.80;18.90;;;;;;;;;;103621;1292;544862;-73
2024/02/15 16:38:05;;;;;;;30.40;14.80;;;;;;;;;;103846;1289;544849;-73
2024/02/15 16:41:46;;;;;;;24.90;11.90;;;;;;;;;;103730;1292;545074;-73
2024/02/15 16:45:20;;;;;;;24.00;12.80;;;;;;;;;;103751;1291;545433;-73
2024/02/15 16:48:58;;;;;;;26.30;15.00;;;;;;;;;;103906;1290;544812;-73
2024/02/15 16:52:38;;;;;;;27.00;15.80;;;;;;;;;;103861;1290;545033;-73
2024/02/15 16:56:16;;;;;;;26.00;15.50;;;;;;;;;;103713;1289;545927;-73
2024/02/15 16:59:50;;;;;;;27.10;16.50;;;;;;;;;;104110;1292;545963;-73
2024/02/15 17:03:23;;;;;;;26.50;17.00;;;;;;;;;;103747;1289;544583;-73
2024/02/15 17:07:05;;;;;;;31.40;17.50;;;;;;;;;;103900;1288;545433;-73
2024/02/15 17:10:42;;;;;;;29.20;14.70;;;;;;;;;;103789;1294;545622;-73
2024/02/15 17:14:16;;;;;;;27.10;12.70;;;;;;;;;;103884;1289;546049;-73
2024/02/15 17:17:57;;;;;;;29.00;12.80;;;;;;;;;;103752;1294;544858;-73
2024/02/15 17:21:40;;;;;;;29.10;14.90;;;;;;;;;;103937;1289;544738;-73
2024/02/15 17:25:08;;;;;;;29.10;15.50;;;;;;;;;;103679;1292;544998;-73
2024/02/15 17:28:50;;;;;;;31.90;16.10;;;;;;;;;;103513;1290;545037;-73
2024/02/15 17:32:28;;;;;;;31.50;15.40;;;;;;;;;;103751;1290;545110;-73
2024/02/15 17:36:04;;;;;;;22.60;14.30;;;;;;;;;;103873;1294;546367;-73
2024/02/15 17:39:43;;;;;;;22.50;15.00;;;;;;;;;;103714;1295;544996;-73
2024/02/15 17:43:15;;;;;;;24.40;15.90;;;;;;;;;;103907;1285;545110;-74
2024/02/15 17:46:56;;;;;;;24.90;14.60;;;;;;;;;;103635;1292;544980;-73
2024/02/15 17:50:34;;;;;;;24.60;13.60;;;;;;;;;;103614;1291;544752;-73
2024/02/15 17:54:11;;;;;;;37.40;22.00;;;;;;;;;;103676;1290;545200;-73
2024/02/15 17:57:50;;;;;;;51.20;32.20;;;;;;;;;;103858;1289;545242;-73
2024/02/15 18:01:26;;;;;;;43.30;27.90;;;;;;;;;;103742;1291;544953;-74
2024/02/15 18:05:07;;;;;;;42.00;25.80;;;;;;;;;;103836;1289;544730;-73
2024/02/15 18:08:42;;;;;;;41.70;25.80;;;;;;;;;;103739;1291;545409;-73
2024/02/15 18:12:22;;;;;;;44.60;25.70;;;;;;;;;;103939;1292;545018;-73
2024/02/15 18:15:57;;;;;;;45.60;23.30;;;;;;;;;;103913;1289;545056;-73
2024/02/15 18:19:34;;;;;;;39.40;19.20;;;;;;;;;;103684;1302;545466;-73
2024/02/15 18:23:12;;;;;;;30.60;16.00;;;;;;;;;;103814;1296;544733;-73
2024/02/15 18:26:49;;;;;;;22.50;14.20;;;;;;;;;;103939;1288;544898;-73
2024/02/15 18:30:33;;;;;;;16.00;10.30;;;;;;;;;;104037;1300;544997;-73
2024/02/15 18:34:08;;;;;;;20.30;11.80;;;;;;;;;;103811;1289;544851;-73
2024/02/15 18:37:44;;;;;;;29.50;16.50;;;;;;;;;;103782;1292;544754;-73
2024/02/15 18:41:19;;;;;;;29.40;15.70;;;;;;;;;;103706;1289;544953;-73
2024/02/15 18:44:58;;;;;;;26.40;14.30;;;;;;;;;;103606;1291;544938;-73
2024/02/15 18:48:35;;;;;;;26.20;15.90;;;;;;;;;;103788;1291;545596;-73
2024/02/15 18:52:11;;;;;;;24.50;16.30;;;;;;;;;;103879;1291;544951;-73
2024/02/15 18:55:49;;;;;;;19.30;12.70;;;;;;;;;;104363;1285;544825;-72
2024/02/15 18:59:27;;;;;;;18.80;12.30;;;;;;;;;;103616;1301;544809;-73
2024/02/15 19:03:04;;;;;;;22.30;14.80;;;;;;;;;;104211;1288;544793;-73
2024/02/15 19:06:41;;;;;;;27.00;18.00;;;;;;;;;;104062;1288;545091;-73
2024/02/15 19:10:20;;;;;;;24.30;16.40;;;;;;;;;;103715;1292;545990;-73
2024/02/15 19:13:57;;;;;;;23.40;15.10;;;;;;;;;;103855;1289;544711;-73
2024/02/15 19:17:34;;;;;;;19.20;13.40;;;;;;;;;;103726;1292;545983;-73
2024/02/15 19:21:10;;;;;;;17.90;11.90;;;;;;;;;;103744;1292;545088;-73
2024/02/15 19:24:45;;;;;;;16.80;11.40;;;;;;;;;;103795;1291;545349;-73
2024/02/15 19:28:26;;;;;;;24.10;15.30;;;;;;;;;;103635;1291;544842;-73
2024/02/15 19:32:04;;;;;;;39.30;22.90;;;;;;;;;;103898;1289;545329;-73
2024/02/15 19:35:41;;;;;;;36.10;22.10;;;;;;;;;;104076;1286;545513;-73
2024/02/15 19:39:19;;;;;;;32.70;17.90;;;;;;;;;;103714;1293;545547;-73
2024/02/15 19:42:57;;;;;;;40.50;22.30;;;;;;;;;;103748;1293;544885;-73
2024/02/15 19:46:41;;;;;;;51.00;28.20;;;;;;;;;;103661;1291;548222;-73
2024/02/15 19:50:13;;;;;;;42.50;23.80;;;;;;;;;;103664;1291;545728;-73
2024/02/15 19:53:49;;;;;;;30.10;17.90;;;;;;;;;;103784;1292;544855;-73
2024/02/15 19:57:26;;;;;;;19.40;12.80;;;;;;;;;;103764;1291;545049;-73
2024/02/15 20:01:00;;;;;;;19.20;11.50;;;;;;;;;;103903;1289;545092;-71
2024/02/15 20:04:40;;;;;;;16.70;10.70;;;;;;;;;;103669;1290;544778;-73
2024/02/15 20:08:19;;;;;;;19.40;12.60;;;;;;;;;;103762;1292;545634;-73
2024/02/15 20:11:58;;;;;;;22.40;14.40;;;;;;;;;;103817;1291;544924;-73
2024/02/15 20:15:33;;;;;;;25.70;16.20;;;;;;;;;;103647;1291;545078;-73
2024/02/15 20:19:10;;;;;;;27.50;17.20;;;;;;;;;;103580;1295;544759;-73
2024/02/15 20:22:48;;;;;;;27.30;16.60;;;;;;;;;;104836;1282;545302;-73
2024/02/15 20:26:21;;;;;;;26.20;16.90;;;;;;;;;;103820;1288;544744;-71
2024/02/15 20:30:04;;;;;;;22.30;15.10;;;;;;;;;;103561;1295;546293;-73
2024/02/15 20:33:41;;;;;;;21.80;13.60;;;;;;;;;;103544;1292;544763;-73
2024/02/15 20:37:18;;;;;;;24.80;16.00;;;;;;;;;;103937;1290;545513;-73
2024/02/15 20:41:01;;;;;;;35.50;20.60;;;;;;;;;;103699;1289;544799;-73
2024/02/15 20:44:33;;;;;;;44.60;23.40;;;;;;;;;;103770;1289;544961;-73
2024/02/15 20:48:10;;;;;;;55.10;26.60;;;;;;;;;;103640;1292;545065;-73
2024/02/15 20:51:47;;;;;;;56.40;27.50;;;;;;;;;;103694;1289;545451;-73
2024/02/15 20:55:25;;;;;;;52.90;26.80;;;;;;;;;;103650;1292;544712;-73
2024/02/15 20:59:05;;;;;;;41.40;24.20;;;;;;;;;;103706;1295;544788;-73
2024/02/15 21:02:40;;;;;;;47.20;29.20;;;;;;;;;;103645;1292;544883;-74
2024/02/15 21:06:21;;;;;;;47.60;30.30;;;;;;;;;;104138;1285;545509;-74
2024/02/15 21:09:54;;;;;;;45.50;26.50;;;;;;;;;;103652;1292;544784;-73
2024/02/15 21:13:31;;;;;;;38.90;23.90;;;;;;;;;;103711;1292;546082;-73
2024/02/15 21:17:10;;;;;;;31.70;22.10;;;;;;;;;;103446;1294;545816;-73
2024/02/15 21:20:47;;;;;;;29.60;19.90;;;;;;;;;;103880;1295;545374;-73